sensor_id;sensor_type;location;lat;lon;timestamp;P1;durP1;ratioP1;P2;durP2;ratioP2
11344;SDS011;5727;42.600;23.028;2023-06-24T00:02:23;14.97;;;11.40;;
11344;SDS011;5727;42.600;23.028;2023-06-24T00:04:50;15.97;;;11.33;;
11344;SDS011;5727;42.600;23.028;2023-06-24T00:07:17;15.40;;;12.13;;
11344;SDS011;5727;42.600;23.028;2023-06-24T00:09:46;18.13;;;12.50;;
11344;SDS011;5727;42.600;23.028;2023-06-24T00:12:12;18.10;;;11.47;;
11344;SDS011;5727;42.600;23.028;2023-06-24T00:14:44;12.83;;;10.33;;
11344;SDS011;5727;42.600;23.028;2023-06-24T00:17:12;16.60;;;11.87;;
11344;SDS011;5727;42.600;23.028;2023-06-24T00:19:40;15.33;;;11.73;;
11344;SDS011;5727;42.600;23.028;2023-06-24T00:22:06;18.63;;;12.63;;
11344;SDS011;5727;42.600;23.028;2023-06-24T00:24:33;15.53;;;11.70;;
11344;SDS011;5727;42.600;23.028;2023-06-24T00:27:00;15.00;;;11.03;;
11344;SDS011;5727;42.600;23.028;2023-06-24T00:29:27;17.70;;;12.47;;
11344;SDS011;5727;42.600;23.028;2023-06-24T00:31:54;14.53;;;12.40;;
11344;SDS011;5727;42.600;23.028;2023-06-24T00:34:20;16.37;;;12.33;;
11344;SDS011;5727;42.600;23.028;2023-06-24T00:36:50;19.07;;;12.90;;
11344;SDS011;5727;42.600;23.028;2023-06-24T00:39:17;14.70;;;11.67;;
11344;SDS011;5727;42.600;23.028;2023-06-24T00:41:44;17.97;;;12.27;;
11344;SDS011;5727;42.600;23.028;2023-06-24T00:44:10;18.33;;;12.33;;
11344;SDS011;5727;42.600;23.028;2023-06-24T00:46:38;16.00;;;12.00;;
11344;SDS011;5727;42.600;23.028;2023-06-24T00:49:05;12.83;;;10.87;;
11344;SDS011;5727;42.600;23.028;2023-06-24T00:51:32;14.73;;;11.33;;
11344;SDS011;5727;42.600;23.028;2023-06-24T00:54:02;14.73;;;12.03;;
11344;SDS011;5727;42.600;23.028;2023-06-24T00:56:30;14.53;;;11.47;;
11344;SDS011;5727;42.600;23.028;2023-06-24T00:59:00;14.67;;;12.23;;
11344;SDS011;5727;42.600;23.028;2023-06-24T01:01:32;16.27;;;11.60;;
11344;SDS011;5727;42.600;23.028;2023-06-24T01:04:00;14.57;;;11.23;;
11344;SDS011;5727;42.600;23.028;2023-06-24T01:06:28;16.70;;;12.23;;
11344;SDS011;5727;42.600;23.028;2023-06-24T01:08:55;16.67;;;12.63;;
11344;SDS011;5727;42.600;23.028;2023-06-24T01:11:26;15.60;;;12.27;;
11344;SDS011;5727;42.600;23.028;2023-06-24T01:13:54;18.67;;;12.27;;
11344;SDS011;5727;42.600;23.028;2023-06-24T01:16:23;15.17;;;11.87;;
11344;SDS011;5727;42.600;23.028;2023-06-24T01:18:57;16.63;;;11.60;;
11344;SDS011;5727;42.600;23.028;2023-06-24T01:21:32;15.73;;;12.07;;
11344;SDS011;5727;42.600;23.028;2023-06-24T01:24:23;16.20;;;12.40;;
11344;SDS011;5727;42.600;23.028;2023-06-24T01:27:27;18.27;;;13.13;;
11344;SDS011;5727;42.600;23.028;2023-06-24T01:33:08;18.77;;;12.57;;
11344;SDS011;5727;42.600;23.028;2023-06-24T01:35:39;13.70;;;12.03;;
11344;SDS011;5727;42.600;23.028;2023-06-24T01:38:10;15.90;;;12.00;;
11344;SDS011;5727;42.600;23.028;2023-06-24T01:40:45;13.43;;;11.40;;
11344;SDS011;5727;42.600;23.028;2023-06-24T01:43:13;15.27;;;11.83;;
11344;SDS011;5727;42.600;23.028;2023-06-24T01:45:45;14.80;;;11.33;;
11344;SDS011;5727;42.600;23.028;2023-06-24T01:48:16;16.27;;;12.37;;
11344;SDS011;5727;42.600;23.028;2023-06-24T01:50:47;17.07;;;12.27;;
11344;SDS011;5727;42.600;23.028;2023-06-24T01:53:19;18.93;;;12.40;;
11344;SDS011;5727;42.600;23.028;2023-06-24T01:55:47;19.67;;;13.40;;
11344;SDS011;5727;42.600;23.028;2023-06-24T01:58:16;14.57;;;12.33;;
11344;SDS011;5727;42.600;23.028;2023-06-24T02:00:45;16.73;;;13.00;;
11344;SDS011;5727;42.600;23.028;2023-06-24T02:03:14;16.40;;;13.73;;
11344;SDS011;5727;42.600;23.028;2023-06-24T02:05:43;18.00;;;12.53;;
11344;SDS011;5727;42.600;23.028;2023-06-24T02:08:13;19.87;;;12.37;;
11344;SDS011;5727;42.600;23.028;2023-06-24T02:10:41;17.67;;;11.83;;
11344;SDS011;5727;42.600;23.028;2023-06-24T02:13:09;16.33;;;11.73;;
11344;SDS011;5727;42.600;23.028;2023-06-24T02:15:38;12.63;;;11.30;;
11344;SDS011;5727;42.600;23.028;2023-06-24T02:18:05;15.10;;;12.07;;
11344;SDS011;5727;42.600;23.028;2023-06-24T02:20:35;16.00;;;12.37;;
11344;SDS011;5727;42.600;23.028;2023-06-24T02:23:05;15.87;;;12.37;;
11344;SDS011;5727;42.600;23.028;2023-06-24T02:25:34;13.77;;;10.97;;
11344;SDS011;5727;42.600;23.028;2023-06-24T02:28:04;14.87;;;11.93;;
11344;SDS011;5727;42.600;23.028;2023-06-24T02:30:32;19.40;;;11.27;;
11344;SDS011;5727;42.600;23.028;2023-06-24T02:33:01;16.30;;;10.90;;
11344;SDS011;5727;42.600;23.028;2023-06-24T02:35:28;14.20;;;11.10;;
11344;SDS011;5727;42.600;23.028;2023-06-24T02:37:56;15.10;;;11.67;;
11344;SDS011;5727;42.600;23.028;2023-06-24T02:40:23;13.17;;;10.90;;
11344;SDS011;5727;42.600;23.028;2023-06-24T02:42:53;14.53;;;11.77;;
11344;SDS011;5727;42.600;23.028;2023-06-24T02:45:20;14.43;;;11.80;;
11344;SDS011;5727;42.600;23.028;2023-06-24T02:47:47;16.10;;;11.87;;
11344;SDS011;5727;42.600;23.028;2023-06-24T02:50:15;15.13;;;12.17;;
11344;SDS011;5727;42.600;23.028;2023-06-24T02:52:43;17.07;;;12.20;;
11344;SDS011;5727;42.600;23.028;2023-06-24T02:55:12;15.60;;;11.70;;
11344;SDS011;5727;42.600;23.028;2023-06-24T02:57:41;19.00;;;12.77;;
11344;SDS011;5727;42.600;23.028;2023-06-24T03:00:09;19.37;;;12.63;;
11344;SDS011;5727;42.600;23.028;2023-06-24T03:02:38;20.23;;;13.37;;
11344;SDS011;5727;42.600;23.028;2023-06-24T03:05:05;16.57;;;12.40;;
11344;SDS011;5727;42.600;23.028;2023-06-24T03:07:33;15.30;;;12.20;;
11344;SDS011;5727;42.600;23.028;2023-06-24T03:10:01;19.40;;;12.20;;
11344;SDS011;5727;42.600;23.028;2023-06-24T03:12:31;17.33;;;13.63;;
11344;SDS011;5727;42.600;23.028;2023-06-24T03:14:58;17.67;;;12.83;;
11344;SDS011;5727;42.600;23.028;2023-06-24T03:17:26;17.60;;;12.80;;
11344;SDS011;5727;42.600;23.028;2023-06-24T03:19:52;17.77;;;12.90;;
11344;SDS011;5727;42.600;23.028;2023-06-24T03:22:20;19.90;;;12.37;;
11344;SDS011;5727;42.600;23.028;2023-06-24T03:24:47;17.43;;;12.10;;
11344;SDS011;5727;42.600;23.028;2023-06-24T03:27:14;17.53;;;12.80;;
11344;SDS011;5727;42.600;23.028;2023-06-24T03:29:43;21.13;;;13.40;;
11344;SDS011;5727;42.600;23.028;2023-06-24T03:32:09;18.17;;;13.03;;
11344;SDS011;5727;42.600;23.028;2023-06-24T03:34:36;18.90;;;13.93;;
11344;SDS011;5727;42.600;23.028;2023-06-24T03:37:03;21.43;;;14.80;;
11344;SDS011;5727;42.600;23.028;2023-06-24T03:39:30;21.23;;;14.20;;
11344;SDS011;5727;42.600;23.028;2023-06-24T03:41:57;22.67;;;14.57;;
11344;SDS011;5727;42.600;23.028;2023-06-24T03:44:24;18.57;;;13.70;;
11344;SDS011;5727;42.600;23.028;2023-06-24T03:46:52;19.80;;;13.77;;
11344;SDS011;5727;42.600;23.028;2023-06-24T03:49:19;20.90;;;14.60;;
11344;SDS011;5727;42.600;23.028;2023-06-24T03:51:45;19.30;;;15.00;;
11344;SDS011;5727;42.600;23.028;2023-06-24T03:54:12;28.03;;;16.27;;
11344;SDS011;5727;42.600;23.028;2023-06-24T03:56:39;25.40;;;16.43;;
11344;SDS011;5727;42.600;23.028;2023-06-24T03:59:06;31.17;;;17.17;;
11344;SDS011;5727;42.600;23.028;2023-06-24T04:01:33;31.77;;;16.83;;
11344;SDS011;5727;42.600;23.028;2023-06-24T04:04:02;25.40;;;16.00;;
11344;SDS011;5727;42.600;23.028;2023-06-24T04:06:29;25.97;;;15.97;;
11344;SDS011;5727;42.600;23.028;2023-06-24T04:08:56;25.37;;;16.37;;
11344;SDS011;5727;42.600;23.028;2023-06-24T04:11:23;25.70;;;15.97;;
11344;SDS011;5727;42.600;23.028;2023-06-24T04:13:50;29.17;;;16.53;;
11344;SDS011;5727;42.600;23.028;2023-06-24T04:16:17;24.43;;;16.00;;
11344;SDS011;5727;42.600;23.028;2023-06-24T04:18:43;27.63;;;16.97;;
11344;SDS011;5727;42.600;23.028;2023-06-24T04:21:12;22.03;;;15.73;;
11344;SDS011;5727;42.600;23.028;2023-06-24T04:23:39;31.97;;;16.67;;
11344;SDS011;5727;42.600;23.028;2023-06-24T04:26:06;24.47;;;15.33;;
11344;SDS011;5727;42.600;23.028;2023-06-24T04:28:33;27.67;;;16.70;;
11344;SDS011;5727;42.600;23.028;2023-06-24T04:30:59;27.80;;;15.00;;
11344;SDS011;5727;42.600;23.028;2023-06-24T04:33:26;31.27;;;17.53;;
11344;SDS011;5727;42.600;23.028;2023-06-24T04:35:53;26.43;;;15.60;;
11344;SDS011;5727;42.600;23.028;2023-06-24T04:38:21;28.70;;;15.70;;
11344;SDS011;5727;42.600;23.028;2023-06-24T04:40:48;31.30;;;16.93;;
11344;SDS011;5727;42.600;23.028;2023-06-24T04:43:15;27.73;;;16.53;;
11344;SDS011;5727;42.600;23.028;2023-06-24T04:45:42;31.67;;;16.47;;
11344;SDS011;5727;42.600;23.028;2023-06-24T04:48:08;29.20;;;17.07;;
11344;SDS011;5727;42.600;23.028;2023-06-24T04:50:35;27.83;;;17.53;;
11344;SDS011;5727;42.600;23.028;2023-06-24T04:53:02;23.37;;;16.77;;
11344;SDS011;5727;42.600;23.028;2023-06-24T04:55:30;24.93;;;16.83;;
11344;SDS011;5727;42.600;23.028;2023-06-24T04:57:57;26.43;;;15.87;;
11344;SDS011;5727;42.600;23.028;2023-06-24T05:00:23;25.23;;;17.00;;
11344;SDS011;5727;42.600;23.028;2023-06-24T05:02:50;21.53;;;16.07;;
11344;SDS011;5727;42.600;23.028;2023-06-24T05:05:17;26.70;;;16.10;;
11344;SDS011;5727;42.600;23.028;2023-06-24T05:07:45;24.17;;;16.80;;
11344;SDS011;5727;42.600;23.028;2023-06-24T05:10:12;24.23;;;16.07;;
11344;SDS011;5727;42.600;23.028;2023-06-24T05:12:40;27.43;;;16.53;;
11344;SDS011;5727;42.600;23.028;2023-06-24T05:15:07;23.77;;;15.80;;
11344;SDS011;5727;42.600;23.028;2023-06-24T05:17:34;29.27;;;17.07;;
11344;SDS011;5727;42.600;23.028;2023-06-24T05:20:01;27.70;;;17.93;;
11344;SDS011;5727;42.600;23.028;2023-06-24T05:22:29;25.80;;;16.83;;
11344;SDS011;5727;42.600;23.028;2023-06-24T05:24:55;26.30;;;18.03;;
11344;SDS011;5727;42.600;23.028;2023-06-24T05:27:22;24.60;;;16.70;;
11344;SDS011;5727;42.600;23.028;2023-06-24T05:29:50;29.20;;;17.57;;
11344;SDS011;5727;42.600;23.028;2023-06-24T05:32:17;27.13;;;17.77;;
11344;SDS011;5727;42.600;23.028;2023-06-24T05:34:45;28.87;;;16.80;;
11344;SDS011;5727;42.600;23.028;2023-06-24T05:37:12;27.23;;;16.60;;
11344;SDS011;5727;42.600;23.028;2023-06-24T05:39:39;26.67;;;17.77;;
11344;SDS011;5727;42.600;23.028;2023-06-24T05:42:05;25.00;;;17.23;;
11344;SDS011;5727;42.600;23.028;2023-06-24T05:44:32;23.93;;;16.23;;
11344;SDS011;5727;42.600;23.028;2023-06-24T05:47:01;26.00;;;17.00;;
11344;SDS011;5727;42.600;23.028;2023-06-24T05:49:27;24.83;;;16.53;;
11344;SDS011;5727;42.600;23.028;2023-06-24T05:51:54;28.40;;;17.80;;
11344;SDS011;5727;42.600;23.028;2023-06-24T05:54:22;21.27;;;16.90;;
11344;SDS011;5727;42.600;23.028;2023-06-24T05:56:49;24.43;;;16.50;;
11344;SDS011;5727;42.600;23.028;2023-06-24T05:59:15;27.40;;;16.30;;
11344;SDS011;5727;42.600;23.028;2023-06-24T06:01:42;27.20;;;17.47;;
11344;SDS011;5727;42.600;23.028;2023-06-24T06:04:10;25.10;;;17.40;;
11344;SDS011;5727;42.600;23.028;2023-06-24T06:06:37;27.40;;;17.53;;
11344;SDS011;5727;42.600;23.028;2023-06-24T06:09:04;34.10;;;19.87;;
11344;SDS011;5727;42.600;23.028;2023-06-24T06:11:31;28.93;;;17.70;;
11344;SDS011;5727;42.600;23.028;2023-06-24T06:13:58;27.30;;;18.80;;
11344;SDS011;5727;42.600;23.028;2023-06-24T06:16:25;26.87;;;18.33;;
11344;SDS011;5727;42.600;23.028;2023-06-24T06:18:53;32.37;;;19.30;;
11344;SDS011;5727;42.600;23.028;2023-06-24T06:21:21;28.57;;;18.47;;
11344;SDS011;5727;42.600;23.028;2023-06-24T06:23:48;26.03;;;17.63;;
11344;SDS011;5727;42.600;23.028;2023-06-24T06:26:15;29.30;;;18.57;;
11344;SDS011;5727;42.600;23.028;2023-06-24T06:28:42;27.77;;;17.17;;
11344;SDS011;5727;42.600;23.028;2023-06-24T06:31:08;23.70;;;17.07;;
11344;SDS011;5727;42.600;23.028;2023-06-24T06:33:35;26.90;;;17.73;;
11344;SDS011;5727;42.600;23.028;2023-06-24T06:36:02;31.30;;;17.63;;
11344;SDS011;5727;42.600;23.028;2023-06-24T06:38:31;24.20;;;16.70;;
11344;SDS011;5727;42.600;23.028;2023-06-24T06:40:58;23.90;;;16.97;;
11344;SDS011;5727;42.600;23.028;2023-06-24T06:43:25;23.70;;;17.63;;
11344;SDS011;5727;42.600;23.028;2023-06-24T06:45:52;24.90;;;17.40;;
11344;SDS011;5727;42.600;23.028;2023-06-24T06:48:19;23.80;;;18.07;;
11344;SDS011;5727;42.600;23.028;2023-06-24T06:50:45;24.43;;;17.87;;
11344;SDS011;5727;42.600;23.028;2023-06-24T06:53:12;26.17;;;18.03;;
11344;SDS011;5727;42.600;23.028;2023-06-24T06:55:40;25.03;;;16.97;;
11344;SDS011;5727;42.600;23.028;2023-06-24T06:58:08;21.80;;;16.20;;
11344;SDS011;5727;42.600;23.028;2023-06-24T07:00:34;24.20;;;16.27;;
11344;SDS011;5727;42.600;23.028;2023-06-24T07:03:01;19.20;;;16.20;;
11344;SDS011;5727;42.600;23.028;2023-06-24T07:05:28;21.30;;;16.20;;
11344;SDS011;5727;42.600;23.028;2023-06-24T07:07:54;21.17;;;16.60;;
11344;SDS011;5727;42.600;23.028;2023-06-24T07:10:21;21.50;;;16.83;;
11344;SDS011;5727;42.600;23.028;2023-06-24T07:12:49;19.43;;;16.43;;
11344;SDS011;5727;42.600;23.028;2023-06-24T07:15:23;17.80;;;15.90;;
11344;SDS011;5727;42.600;23.028;2023-06-24T07:17:50;18.93;;;16.50;;
11344;SDS011;5727;42.600;23.028;2023-06-24T07:20:16;19.93;;;17.13;;
11344;SDS011;5727;42.600;23.028;2023-06-24T07:22:43;19.50;;;16.77;;
11344;SDS011;5727;42.600;23.028;2023-06-24T07:25:11;22.53;;;16.87;;
11344;SDS011;5727;42.600;23.028;2023-06-24T07:27:38;19.90;;;16.07;;
11344;SDS011;5727;42.600;23.028;2023-06-24T07:30:06;21.07;;;16.83;;
11344;SDS011;5727;42.600;23.028;2023-06-24T07:32:34;23.37;;;17.03;;
11344;SDS011;5727;42.600;23.028;2023-06-24T07:35:01;25.37;;;16.93;;
11344;SDS011;5727;42.600;23.028;2023-06-24T07:37:27;19.47;;;17.23;;
11344;SDS011;5727;42.600;23.028;2023-06-24T07:39:54;21.33;;;16.00;;
11344;SDS011;5727;42.600;23.028;2023-06-24T07:42:21;23.60;;;17.20;;
11344;SDS011;5727;42.600;23.028;2023-06-24T07:44:48;20.63;;;15.63;;
11344;SDS011;5727;42.600;23.028;2023-06-24T07:47:17;22.53;;;16.87;;
11344;SDS011;5727;42.600;23.028;2023-06-24T07:49:44;22.37;;;16.73;;
11344;SDS011;5727;42.600;23.028;2023-06-24T07:52:11;22.27;;;17.90;;
11344;SDS011;5727;42.600;23.028;2023-06-24T07:54:37;23.87;;;16.37;;
11344;SDS011;5727;42.600;23.028;2023-06-24T07:57:04;18.43;;;16.23;;
11344;SDS011;5727;42.600;23.028;2023-06-24T07:59:31;18.63;;;15.67;;
11344;SDS011;5727;42.600;23.028;2023-06-24T08:01:58;17.87;;;15.20;;
11344;SDS011;5727;42.600;23.028;2023-06-24T08:04:26;17.97;;;16.07;;
11344;SDS011;5727;42.600;23.028;2023-06-24T08:06:52;17.60;;;15.40;;
11344;SDS011;5727;42.600;23.028;2023-06-24T08:09:19;18.27;;;15.20;;
11344;SDS011;5727;42.600;23.028;2023-06-24T08:11:46;19.53;;;15.03;;
11344;SDS011;5727;42.600;23.028;2023-06-24T08:14:13;17.27;;;14.80;;
11344;SDS011;5727;42.600;23.028;2023-06-24T08:16:39;16.47;;;14.73;;
11344;SDS011;5727;42.600;23.028;2023-06-24T08:19:06;18.33;;;15.00;;
11344;SDS011;5727;42.600;23.028;2023-06-24T08:21:34;17.73;;;14.97;;
11344;SDS011;5727;42.600;23.028;2023-06-24T08:24:03;16.77;;;13.37;;
11344;SDS011;5727;42.600;23.028;2023-06-24T08:26:30;15.90;;;13.53;;
11344;SDS011;5727;42.600;23.028;2023-06-24T08:28:56;14.73;;;13.07;;
11344;SDS011;5727;42.600;23.028;2023-06-24T08:31:24;17.60;;;14.57;;
11344;SDS011;5727;42.600;23.028;2023-06-24T08:33:51;16.03;;;14.43;;
11344;SDS011;5727;42.600;23.028;2023-06-24T08:36:20;16.73;;;14.43;;
11344;SDS011;5727;42.600;23.028;2023-06-24T08:38:49;17.50;;;13.33;;
11344;SDS011;5727;42.600;23.028;2023-06-24T08:41:16;17.17;;;14.13;;
11344;SDS011;5727;42.600;23.028;2023-06-24T08:43:42;20.33;;;13.43;;
11344;SDS011;5727;42.600;23.028;2023-06-24T08:46:09;16.80;;;12.73;;
11344;SDS011;5727;42.600;23.028;2023-06-24T08:48:37;15.02;;;13.40;;
11344;SDS011;5727;42.600;23.028;2023-06-24T08:51:07;20.20;;;14.10;;
11344;SDS011;5727;42.600;23.028;2023-06-24T08:53:35;16.58;;;13.40;;
11344;SDS011;5727;42.600;23.028;2023-06-24T08:56:05;20.63;;;15.32;;
11344;SDS011;5727;42.600;23.028;2023-06-24T08:58:32;18.52;;;14.88;;
11344;SDS011;5727;42.600;23.028;2023-06-24T09:00:59;19.65;;;15.00;;
11344;SDS011;5727;42.600;23.028;2023-06-24T09:03:26;16.85;;;14.73;;
11344;SDS011;5727;42.600;23.028;2023-06-24T09:05:53;17.25;;;15.23;;
11344;SDS011;5727;42.600;23.028;2023-06-24T09:08:20;20.15;;;15.02;;
11344;SDS011;5727;42.600;23.028;2023-06-24T09:10:52;18.05;;;15.45;;
11344;SDS011;5727;42.600;23.028;2023-06-24T09:13:21;16.95;;;15.25;;
11344;SDS011;5727;42.600;23.028;2023-06-24T09:15:53;16.95;;;14.75;;
11344;SDS011;5727;42.600;23.028;2023-06-24T09:18:24;20.42;;;15.30;;
11344;SDS011;5727;42.600;23.028;2023-06-24T09:20:57;16.45;;;14.60;;
11344;SDS011;5727;42.600;23.028;2023-06-24T09:23:27;16.85;;;15.30;;
11344;SDS011;5727;42.600;23.028;2023-06-24T09:25:56;16.10;;;14.52;;
11344;SDS011;5727;42.600;23.028;2023-06-24T09:28:27;16.60;;;14.82;;
11344;SDS011;5727;42.600;23.028;2023-06-24T09:31:04;18.23;;;15.57;;
11344;SDS011;5727;42.600;23.028;2023-06-24T09:33:33;18.90;;;15.35;;
11344;SDS011;5727;42.600;23.028;2023-06-24T09:36:01;16.38;;;14.80;;
11344;SDS011;5727;42.600;23.028;2023-06-24T09:38:32;17.30;;;15.50;;
11344;SDS011;5727;42.600;23.028;2023-06-24T09:41:01;17.08;;;15.27;;
11344;SDS011;5727;42.600;23.028;2023-06-24T09:43:31;18.67;;;15.38;;
11344;SDS011;5727;42.600;23.028;2023-06-24T09:46:01;17.27;;;15.00;;
11344;SDS011;5727;42.600;23.028;2023-06-24T09:48:28;17.10;;;15.30;;
11344;SDS011;5727;42.600;23.028;2023-06-24T09:50:54;17.83;;;15.90;;
11344;SDS011;5727;42.600;23.028;2023-06-24T09:53:25;17.08;;;15.35;;
11344;SDS011;5727;42.600;23.028;2023-06-24T09:55:53;16.83;;;15.13;;
11344;SDS011;5727;42.600;23.028;2023-06-24T09:58:21;15.52;;;14.02;;
11344;SDS011;5727;42.600;23.028;2023-06-24T10:00:50;16.45;;;13.65;;
11344;SDS011;5727;42.600;23.028;2023-06-24T10:03:18;15.80;;;12.95;;
11344;SDS011;5727;42.600;23.028;2023-06-24T10:05:45;15.52;;;13.90;;
11344;SDS011;5727;42.600;23.028;2023-06-24T10:08:13;13.63;;;12.05;;
11344;SDS011;5727;42.600;23.028;2023-06-24T10:10:40;12.90;;;11.63;;
11344;SDS011;5727;42.600;23.028;2023-06-24T10:13:06;12.50;;;11.15;;
11344;SDS011;5727;42.600;23.028;2023-06-24T10:15:34;12.63;;;10.65;;
11344;SDS011;5727;42.600;23.028;2023-06-24T10:18:03;13.93;;;11.15;;
11344;SDS011;5727;42.600;23.028;2023-06-24T10:21:00;13.30;;;10.65;;
11344;SDS011;5727;42.600;23.028;2023-06-24T10:23:29;14.07;;;11.02;;
11344;SDS011;5727;42.600;23.028;2023-06-24T10:25:57;13.85;;;12.13;;
11344;SDS011;5727;42.600;23.028;2023-06-24T10:28:24;12.30;;;11.00;;
11344;SDS011;5727;42.600;23.028;2023-06-24T10:30:53;14.63;;;11.35;;
11344;SDS011;5727;42.600;23.028;2023-06-24T10:33:22;12.40;;;9.30;;
11344;SDS011;5727;42.600;23.028;2023-06-24T10:35:50;11.90;;;10.38;;
11344;SDS011;5727;42.600;23.028;2023-06-24T10:38:18;12.73;;;10.23;;
11344;SDS011;5727;42.600;23.028;2023-06-24T10:40:44;11.82;;;10.63;;
11344;SDS011;5727;42.600;23.028;2023-06-24T10:46:06;14.20;;;10.10;;
11344;SDS011;5727;42.600;23.028;2023-06-24T10:48:43;10.68;;;9.68;;
11344;SDS011;5727;42.600;23.028;2023-06-24T10:51:09;10.68;;;9.57;;
11344;SDS011;5727;42.600;23.028;2023-06-24T10:53:36;10.88;;;9.43;;
11344;SDS011;5727;42.600;23.028;2023-06-24T10:56:03;11.02;;;9.45;;
11344;SDS011;5727;42.600;23.028;2023-06-24T10:58:31;12.32;;;8.90;;
11344;SDS011;5727;42.600;23.028;2023-06-24T11:01:06;11.25;;;8.40;;
11344;SDS011;5727;42.600;23.028;2023-06-24T11:03:33;8.70;;;6.95;;
11344;SDS011;5727;42.600;23.028;2023-06-24T11:06:03;9.02;;;7.95;;
11344;SDS011;5727;42.600;23.028;2023-06-24T11:08:30;8.68;;;7.78;;
11344;SDS011;5727;42.600;23.028;2023-06-24T11:10:57;8.90;;;7.50;;
11344;SDS011;5727;42.600;23.028;2023-06-24T11:13:24;12.88;;;7.18;;
11344;SDS011;5727;42.600;23.028;2023-06-24T11:15:51;11.60;;;7.68;;
11344;SDS011;5727;42.600;23.028;2023-06-24T11:18:18;7.97;;;7.20;;
11344;SDS011;5727;42.600;23.028;2023-06-24T11:20:45;10.88;;;7.75;;
11344;SDS011;5727;42.600;23.028;2023-06-24T11:23:13;11.25;;;7.63;;
11344;SDS011;5727;42.600;23.028;2023-06-24T11:25:40;9.85;;;7.95;;
11344;SDS011;5727;42.600;23.028;2023-06-24T11:28:17;13.07;;;8.98;;
11344;SDS011;5727;42.600;23.028;2023-06-24T11:30:44;11.13;;;7.68;;
11344;SDS011;5727;42.600;23.028;2023-06-24T11:33:11;9.35;;;7.43;;
11344;SDS011;5727;42.600;23.028;2023-06-24T11:35:37;8.68;;;7.78;;
11344;SDS011;5727;42.600;23.028;2023-06-24T11:38:04;9.10;;;8.02;;
11344;SDS011;5727;42.600;23.028;2023-06-24T11:40:33;11.05;;;8.25;;
11344;SDS011;5727;42.600;23.028;2023-06-24T11:43:00;16.33;;;8.75;;
11344;SDS011;5727;42.600;23.028;2023-06-24T11:45:27;8.75;;;7.72;;
11344;SDS011;5727;42.600;23.028;2023-06-24T11:47:54;8.93;;;7.13;;
11344;SDS011;5727;42.600;23.028;2023-06-24T11:50:29;9.13;;;7.75;;
11344;SDS011;5727;42.600;23.028;2023-06-24T11:52:56;9.00;;;8.10;;
11344;SDS011;5727;42.600;23.028;2023-06-24T11:55:24;8.40;;;7.10;;
11344;SDS011;5727;42.600;23.028;2023-06-24T11:57:54;9.77;;;8.13;;
11344;SDS011;5727;42.600;23.028;2023-06-24T12:00:22;8.43;;;7.63;;
11344;SDS011;5727;42.600;23.028;2023-06-24T12:02:52;10.68;;;8.13;;
11344;SDS011;5727;42.600;23.028;2023-06-24T12:05:20;10.77;;;7.97;;
11344;SDS011;5727;42.600;23.028;2023-06-24T12:07:52;9.85;;;8.18;;
11344;SDS011;5727;42.600;23.028;2023-06-24T12:10:21;11.25;;;8.93;;
11344;SDS011;5727;42.600;23.028;2023-06-24T12:12:47;10.10;;;9.10;;
11344;SDS011;5727;42.600;23.028;2023-06-24T12:15:15;10.82;;;8.45;;
11344;SDS011;5727;42.600;23.028;2023-06-24T12:17:42;10.77;;;8.48;;
11344;SDS011;5727;42.600;23.028;2023-06-24T12:20:09;10.50;;;8.50;;
11344;SDS011;5727;42.600;23.028;2023-06-24T12:22:38;10.88;;;8.18;;
11344;SDS011;5727;42.600;23.028;2023-06-24T12:25:05;8.30;;;7.28;;
11344;SDS011;5727;42.600;23.028;2023-06-24T12:27:33;8.23;;;7.43;;
11344;SDS011;5727;42.600;23.028;2023-06-24T12:30:00;9.93;;;7.72;;
11344;SDS011;5727;42.600;23.028;2023-06-24T12:32:28;9.73;;;7.45;;
11344;SDS011;5727;42.600;23.028;2023-06-24T12:34:54;9.50;;;7.93;;
11344;SDS011;5727;42.600;23.028;2023-06-24T12:37:21;8.77;;;7.88;;
11344;SDS011;5727;42.600;23.028;2023-06-24T12:39:48;11.65;;;7.97;;
11344;SDS011;5727;42.600;23.028;2023-06-24T12:42:16;11.50;;;8.15;;
11344;SDS011;5727;42.600;23.028;2023-06-24T12:44:42;11.65;;;8.40;;
11344;SDS011;5727;42.600;23.028;2023-06-24T12:47:09;9.93;;;8.18;;
11344;SDS011;5727;42.600;23.028;2023-06-24T12:49:37;10.82;;;8.27;;
11344;SDS011;5727;42.600;23.028;2023-06-24T12:52:04;12.15;;;8.48;;
11344;SDS011;5727;42.600;23.028;2023-06-24T12:54:31;11.88;;;8.88;;
11344;SDS011;5727;42.600;23.028;2023-06-24T12:56:57;14.82;;;8.45;;
11344;SDS011;5727;42.600;23.028;2023-06-24T12:59:24;10.60;;;8.15;;
11344;SDS011;5727;42.600;23.028;2023-06-24T13:01:51;11.20;;;8.48;;
11344;SDS011;5727;42.600;23.028;2023-06-24T13:04:17;9.07;;;8.18;;
11344;SDS011;5727;42.600;23.028;2023-06-24T13:06:48;9.35;;;7.65;;
11344;SDS011;5727;42.600;23.028;2023-06-24T13:09:15;11.00;;;8.10;;
11344;SDS011;5727;42.600;23.028;2023-06-24T13:11:42;11.02;;;8.43;;
11344;SDS011;5727;42.600;23.028;2023-06-24T13:14:09;16.98;;;10.10;;
11344;SDS011;5727;42.600;23.028;2023-06-24T13:16:35;15.70;;;11.65;;
11344;SDS011;5727;42.600;23.028;2023-06-24T13:19:03;17.38;;;12.00;;
11344;SDS011;5727;42.600;23.028;2023-06-24T13:21:30;13.48;;;11.43;;
11344;SDS011;5727;42.600;23.028;2023-06-24T13:23:58;14.55;;;11.98;;
11344;SDS011;5727;42.600;23.028;2023-06-24T13:26:25;17.88;;;12.40;;
11344;SDS011;5727;42.600;23.028;2023-06-24T13:28:51;14.85;;;11.43;;
11344;SDS011;5727;42.600;23.028;2023-06-24T13:31:19;14.27;;;11.48;;
11344;SDS011;5727;42.600;23.028;2023-06-24T13:33:46;15.23;;;10.95;;
11344;SDS011;5727;42.600;23.028;2023-06-24T13:36:25;18.08;;;11.35;;
11344;SDS011;5727;42.600;23.028;2023-06-24T13:38:57;15.60;;;10.25;;
11344;SDS011;5727;42.600;23.028;2023-06-24T13:41:24;12.07;;;10.65;;
11344;SDS011;5727;42.600;23.028;2023-06-24T13:43:54;14.10;;;9.30;;
11344;SDS011;5727;42.600;23.028;2023-06-24T13:46:21;11.17;;;9.83;;
11344;SDS011;5727;42.600;23.028;2023-06-24T13:48:48;12.50;;;8.57;;
11344;SDS011;5727;42.600;23.028;2023-06-24T13:51:15;12.00;;;9.65;;
11344;SDS011;5727;42.600;23.028;2023-06-24T13:53:42;13.30;;;9.10;;
11344;SDS011;5727;42.600;23.028;2023-06-24T13:56:10;12.40;;;9.70;;
11344;SDS011;5727;42.600;23.028;2023-06-24T13:58:37;12.32;;;9.57;;
11344;SDS011;5727;42.600;23.028;2023-06-24T14:01:03;13.00;;;8.73;;
11344;SDS011;5727;42.600;23.028;2023-06-24T14:03:30;12.93;;;8.38;;
11344;SDS011;5727;42.600;23.028;2023-06-24T14:05:57;11.98;;;8.63;;
11344;SDS011;5727;42.600;23.028;2023-06-24T14:08:26;14.27;;;8.15;;
11344;SDS011;5727;42.600;23.028;2023-06-24T14:10:53;16.20;;;8.75;;
11344;SDS011;5727;42.600;23.028;2023-06-24T14:13:21;11.80;;;8.85;;
11344;SDS011;5727;42.600;23.028;2023-06-24T14:15:49;15.63;;;10.48;;
11344;SDS011;5727;42.600;23.028;2023-06-24T14:18:15;15.18;;;8.48;;
11344;SDS011;5727;42.600;23.028;2023-06-24T14:20:42;21.10;;;7.82;;
11344;SDS011;5727;42.600;23.028;2023-06-24T14:23:09;15.25;;;7.25;;
11344;SDS011;5727;42.600;23.028;2023-06-24T14:25:36;20.55;;;7.53;;
11344;SDS011;5727;42.600;23.028;2023-06-24T14:28:03;16.27;;;7.35;;
11344;SDS011;5727;42.600;23.028;2023-06-24T14:30:31;13.13;;;6.50;;
11344;SDS011;5727;42.600;23.028;2023-06-24T14:32:59;12.35;;;6.45;;
11344;SDS011;5727;42.600;23.028;2023-06-24T14:35:26;11.15;;;6.63;;
11344;SDS011;5727;42.600;23.028;2023-06-24T14:37:53;8.07;;;6.53;;